Time;durP1;ratioP1;P1;durP2;ratioP2;P2;SDS_P1;SDS_P2;PMS_P1;PMS_P2;Temp;Humidity;BMP_temperature;BMP_pressure;BME280_temperature;BME280_humidity;BME280_pressure;Samples;Min_cycle;Max_cycle;Signal;HPM_P1;HPM_P2
2023/07/28 00:02:05;;;;;;;17.35;6.43;;;17.80;99.90;;;;;;5035061;28;20053;-70
2023/07/28 00:04:31;;;;;;;19.33;6.03;;;17.80;99.90;;;;;;5045361;28;20119;-70
2023/07/28 00:06:57;;;;;;;16.65;5.45;;;17.80;99.90;;;;;;5017632;28;20568;-70
2023/07/28 00:09:23;;;;;;;14.57;5.55;;;17.80;99.90;;;;;;5045449;28;20052;-70
2023/07/28 00:11:49;;;;;;;11.85;5.75;;;17.90;99.90;;;;;;5037075;28;20379;-70
2023/07/28 00:14:15;;;;;;;15.20;6.97;;;17.80;99.90;;;;;;5047616;28;20486;-69
2023/07/28 00:16:40;;;;;;;13.98;6.47;;;17.90;99.90;;;;;;5031447;28;20246;-70
2023/07/28 00:19:06;;;;;;;15.48;5.70;;;17.90;99.90;;;;;;5035753;28;20508;-70
2023/07/28 00:21:32;;;;;;;14.68;6.32;;;17.90;99.90;;;;;;5046296;28;20041;-70
2023/07/28 00:23:57;;;;;;;14.98;5.90;;;17.90;99.90;;;;;;5047623;28;20079;-69
2023/07/28 00:26:23;;;;;;;15.05;5.55;;;17.90;99.90;;;;;;5047590;28;20572;-69
2023/07/28 00:28:49;;;;;;;18.30;6.70;;;17.90;99.90;;;;;;5047802;28;20056;-69
2023/07/28 00:31:15;;;;;;;18.58;5.57;;;17.90;99.90;;;;;;5047109;28;20044;-70
2023/07/28 00:33:41;;;;;;;13.30;5.38;;;17.90;99.90;;;;;;5030871;28;20049;-69
2023/07/28 00:36:07;;;;;;;18.40;6.60;;;17.90;99.90;;;;;;5019298;28;20526;-69
2023/07/28 00:38:33;;;;;;;16.75;6.43;;;17.90;99.90;;;;;;5045537;28;20487;-69
2023/07/28 00:40:59;;;;;;;11.35;5.88;;;17.90;99.90;;;;;;5047366;28;20139;-69
2023/07/28 00:43:24;;;;;;;16.38;6.70;;;17.90;99.90;;;;;;5030760;28;20056;-70
2023/07/28 00:45:50;;;;;;;21.00;6.50;;;18.00;99.90;;;;;;5047860;28;20041;-69
2023/07/28 00:48:17;;;;;;;25.48;7.60;;;17.90;99.90;;;;;;5032069;28;20036;-69
2023/07/28 00:50:45;;;;;;;23.05;8.40;;;18.00;99.90;;;;;;5050534;28;20178;-69
2023/07/28 00:53:11;;;;;;;29.88;7.32;;;17.90;99.90;;;;;;5034548;28;20174;-69
2023/07/28 00:55:38;;;;;;;23.73;7.03;;;17.90;99.90;;;;;;5050896;28;20468;-68
2023/07/28 00:58:04;;;;;;;15.10;7.20;;;17.90;99.90;;;;;;5051473;28;20066;-68
2023/07/28 01:00:30;;;;;;;28.10;7.80;;;17.90;99.90;;;;;;5051275;28;20067;-69
2023/07/28 01:02:57;;;;;;;17.38;7.07;;;17.90;99.90;;;;;;5068863;28;20398;-69
2023/07/28 01:05:33;;;;;;;24.83;6.93;;;18.00;99.90;;;;;;5051036;28;20036;-69
2023/07/28 01:08:05;;;;;;;21.02;7.38;;;18.00;99.90;;;;;;5048964;28;20044;-69
2023/07/28 01:10:32;;;;;;;24.80;9.07;;;17.90;99.90;;;;;;5053076;28;20045;-69
2023/07/28 01:12:59;;;;;;;25.77;7.35;;;18.00;99.90;;;;;;5050909;28;20055;-69
2023/07/28 01:15:25;;;;;;;27.70;7.93;;;17.90;99.90;;;;;;5014654;28;20148;-69
2023/07/28 01:17:51;;;;;;;26.30;7.30;;;17.90;99.90;;;;;;5049350;28;20048;-69
2023/07/28 01:20:17;;;;;;;25.30;7.22;;;18.00;99.90;;;;;;5050974;28;20051;-69
2023/07/28 01:22:52;;;;;;;34.60;9.02;;;18.00;99.90;;;;;;5033854;28;20048;-69
2023/07/28 01:25:35;;;;;;;24.98;7.35;;;18.00;99.90;;;;;;5050793;28;20054;-69
2023/07/28 01:28:02;;;;;;;26.90;7.82;;;18.00;99.90;;;;;;5051016;28;20052;-69
2023/07/28 01:30:28;;;;;;;23.13;8.02;;;17.80;99.90;;;;;;5051425;28;20048;-69
2023/07/28 01:32:55;;;;;;;29.38;8.40;;;18.00;99.90;;;;;;5067926;28;20520;-69
2023/07/28 01:35:21;;;;;;;19.38;7.82;;;17.90;99.90;;;;;;5050826;28;20052;-68
2023/07/28 01:37:50;;;;;;;31.45;8.75;;;17.90;99.90;;;;;;5050197;28;20052;-69
2023/07/28 01:40:19;;;;;;;22.48;7.75;;;17.90;99.90;;;;;;5050270;28;20068;-69
2023/07/28 01:42:45;;;;;;;20.88;7.88;;;18.00;99.90;;;;;;5033574;28;20522;-69
2023/07/28 01:45:11;;;;;;;26.38;7.18;;;18.00;99.90;;;;;;5050066;28;20041;-69
2023/07/28 01:47:37;;;;;;;24.67;6.93;;;18.00;99.90;;;;;;5050099;28;20469;-69
2023/07/28 01:50:03;;;;;;;18.63;6.75;;;18.00;99.90;;;;;;5050484;28;20052;-69
2023/07/28 01:52:29;;;;;;;15.93;6.78;;;17.90;99.90;;;;;;5068749;28;20508;-69
2023/07/28 01:54:55;;;;;;;20.48;7.20;;;17.90;99.90;;;;;;5068353;28;20052;-69
2023/07/28 01:57:20;;;;;;;21.88;6.90;;;17.90;99.90;;;;;;5050459;28;20119;-69
2023/07/28 01:59:46;;;;;;;16.85;7.88;;;17.90;99.90;;;;;;5049539;28;20040;-69
2023/07/28 02:02:12;;;;;;;19.05;6.63;;;18.00;99.90;;;;;;5041130;28;20048;-69
2023/07/28 02:04:38;;;;;;;21.02;6.95;;;18.00;99.90;;;;;;5049626;28;20091;-69
2023/07/28 02:07:04;;;;;;;18.80;7.88;;;17.90;99.90;;;;;;5050220;28;20052;-69
2023/07/28 02:09:30;;;;;;;36.72;9.18;;;18.00;99.90;;;;;;5044525;28;20072;-69
2023/07/28 02:11:55;;;;;;;24.70;6.65;;;17.90;99.90;;;;;;5041375;28;20044;-69
2023/07/28 02:14:21;;;;;;;23.85;7.50;;;17.90;99.90;;;;;;5050094;28;20610;-69
2023/07/28 02:16:47;;;;;;;21.17;7.50;;;18.00;99.90;;;;;;5049676;28;20554;-69
2023/07/28 02:19:12;;;;;;;16.80;6.05;;;18.00;99.90;;;;;;5049790;28;20426;-69
2023/07/28 02:21:38;;;;;;;21.88;6.18;;;17.90;99.90;;;;;;5049619;28;20105;-70
2023/07/28 02:24:04;;;;;;;17.23;6.15;;;18.00;99.90;;;;;;5067718;28;20084;-69
2023/07/28 02:26:30;;;;;;;18.27;6.20;;;18.00;99.90;;;;;;5049649;28;20040;-69
2023/07/28 02:28:56;;;;;;;16.08;6.10;;;18.00;99.90;;;;;;5049788;28;20063;-69
2023/07/28 02:31:21;;;;;;;17.67;6.78;;;17.90;99.90;;;;;;5049460;28;20570;-69
2023/07/28 02:33:47;;;;;;;19.27;6.80;;;17.90;99.90;;;;;;5067148;28;20048;-69
2023/07/28 02:36:13;;;;;;;14.25;5.72;;;17.90;99.90;;;;;;5049391;28;20173;-69
2023/07/28 02:38:38;;;;;;;18.35;6.25;;;18.00;99.90;;;;;;5049974;28;20127;-69
2023/07/28 02:41:04;;;;;;;14.38;6.70;;;17.90;99.90;;;;;;5049115;28;20052;-69
2023/07/28 02:43:30;;;;;;;15.50;6.28;;;18.00;99.90;;;;;;5032501;28;20080;-70
2023/07/28 02:45:57;;;;;;;18.52;6.50;;;17.90;99.90;;;;;;5032510;28;20465;-70
2023/07/28 02:48:23;;;;;;;20.67;7.55;;;18.00;99.90;;;;;;5049221;28;20045;-69
2023/07/28 02:50:51;;;;;;;15.27;6.63;;;17.90;99.90;;;;;;5067040;28;20483;-70
2023/07/28 02:53:16;;;;;;;22.80;8.02;;;18.00;99.90;;;;;;5049634;28;20505;-69
2023/07/28 02:55:43;;;;;;;16.73;6.57;;;18.00;99.90;;;;;;5049078;28;20048;-69
2023/07/28 02:58:09;;;;;;;19.30;7.25;;;18.00;99.90;;;;;;5032371;28;20520;-69
2023/07/28 03:00:43;;;;;;;18.95;7.30;;;17.90;99.90;;;;;;5032368;28;20125;-69
2023/07/28 03:03:10;;;;;;;15.93;7.00;;;18.00;99.90;;;;;;5049254;28;20494;-70
2023/07/28 03:05:37;;;;;;;16.88;7.35;;;18.00;99.90;;;;;;5048957;28;20499;-69
2023/07/28 03:08:03;;;;;;;18.45;6.88;;;18.00;99.90;;;;;;5048553;28;20120;-69
2023/07/28 03:10:29;;;;;;;19.50;7.10;;;18.00;99.90;;;;;;5041527;28;20076;-69
2023/07/28 03:12:56;;;;;;;17.27;6.82;;;17.90;99.90;;;;;;5034070;28;20068;-69
2023/07/28 03:15:22;;;;;;;13.95;6.20;;;17.90;99.90;;;;;;5031946;28;20048;-69
2023/07/28 03:17:48;;;;;;;21.60;6.95;;;17.90;99.90;;;;;;5031562;28;20130;-69
2023/07/28 03:20:14;;;;;;;17.23;6.82;;;17.90;99.90;;;;;;5049013;28;20040;-69
2023/07/28 03:22:40;;;;;;;11.30;6.18;;;18.00;99.90;;;;;;5048630;28;20597;-69
2023/07/28 03:25:06;;;;;;;16.77;6.43;;;18.00;99.90;;;;;;5048099;28;20057;-69
2023/07/28 03:27:32;;;;;;;19.02;6.68;;;18.00;99.90;;;;;;5048669;28;20132;-69
2023/07/28 03:29:57;;;;;;;15.27;5.80;;;17.90;99.90;;;;;;5015848;28;20044;-69
2023/07/28 03:32:23;;;;;;;15.88;6.00;;;17.90;99.90;;;;;;5048361;28;20426;-69
2023/07/28 03:34:49;;;;;;;9.68;6.00;;;18.00;99.90;;;;;;5026717;28;20037;-69
2023/07/28 03:37:14;;;;;;;13.45;5.53;;;17.90;99.90;;;;;;5044753;28;20123;-69
2023/07/28 03:39:40;;;;;;;12.90;5.68;;;17.90;99.90;;;;;;5047927;28;20083;-69
2023/07/28 03:42:07;;;;;;;14.13;5.10;;;17.90;99.90;;;;;;5047937;28;20057;-69
2023/07/28 03:44:33;;;;;;;12.93;5.43;;;17.90;99.90;;;;;;5032037;28;20059;-69
2023/07/28 03:46:59;;;;;;;11.90;5.40;;;17.90;99.90;;;;;;5048039;28;20512;-69
2023/07/28 03:49:25;;;;;;;11.98;5.55;;;17.90;99.90;;;;;;5048501;28;20072;-69
2023/07/28 03:51:50;;;;;;;16.55;5.97;;;18.00;99.90;;;;;;5047695;28;20513;-69
2023/07/28 03:54:16;;;;;;;11.80;5.28;;;17.90;99.90;;;;;;5031615;28;20339;-69
2023/07/28 03:56:42;;;;;;;18.30;6.10;;;17.90;99.90;;;;;;5066110;28;20052;-69
2023/07/28 03:59:08;;;;;;;10.70;6.28;;;18.00;99.90;;;;;;5047838;28;20040;-69
2023/07/28 04:01:33;;;;;;;13.77;5.88;;;18.00;99.90;;;;;;5048099;28;20123;-69
2023/07/28 04:04:03;;;;;;;15.98;7.30;;;18.00;99.90;;;;;;5031118;28;20434;-69
2023/07/28 04:06:42;;;;;;;18.40;6.10;;;18.00;99.90;;;;;;5045129;28;20048;-69
2023/07/28 04:09:08;;;;;;;17.77;5.78;;;18.00;99.90;;;;;;5031877;28;20044;-69
2023/07/28 04:11:34;;;;;;;17.48;6.38;;;18.00;99.90;;;;;;5045487;28;20461;-69
2023/07/28 04:13:59;;;;;;;14.68;5.40;;;17.90;99.90;;;;;;5031408;28;20040;-69
2023/07/28 04:16:25;;;;;;;14.75;5.95;;;18.00;99.90;;;;;;5031099;28;20498;-69
2023/07/28 04:18:51;;;;;;;10.80;5.40;;;18.00;99.90;;;;;;5066050;28;20036;-69
2023/07/28 04:21:16;;;;;;;13.38;5.47;;;17.90;99.90;;;;;;5046948;28;20526;-70
2023/07/28 04:23:43;;;;;;;13.70;6.00;;;18.00;99.90;;;;;;5035317;28;20063;-68
2023/07/28 04:26:09;;;;;;;14.80;6.18;;;18.00;99.90;;;;;;5051597;28;20048;-70
2023/07/28 04:28:35;;;;;;;19.55;6.65;;;17.90;99.90;;;;;;5035370;28;20059;-70
2023/07/28 04:31:00;;;;;;;20.52;6.43;;;18.00;99.90;;;;;;5050614;28;20109;-69
2023/07/28 04:33:26;;;;;;;14.07;6.50;;;17.90;99.90;;;;;;5069949;28;20131;-70
2023/07/28 04:35:52;;;;;;;24.52;5.70;;;18.00;99.90;;;;;;5035154;28;20049;-69
2023/07/28 04:38:18;;;;;;;15.88;5.65;;;17.90;99.90;;;;;;5018133;28;20047;-69
2023/07/28 04:40:44;;;;;;;13.20;5.93;;;18.00;99.90;;;;;;5035118;28;20053;-70
2023/07/28 04:43:11;;;;;;;20.48;5.60;;;17.90;99.90;;;;;;5050699;28;20052;-69
2023/07/28 04:45:36;;;;;;;15.02;5.53;;;17.90;99.90;;;;;;5035609;28;20048;-70
2023/07/28 04:48:03;;;;;;;19.45;5.85;;;18.00;99.90;;;;;;5051155;28;20127;-70
2023/07/28 04:50:28;;;;;;;16.05;5.95;;;18.00;99.90;;;;;;5051803;28;20072;-70
2023/07/28 04:52:54;;;;;;;13.27;5.15;;;18.00;99.90;;;;;;5051423;28;20435;-69
2023/07/28 04:55:20;;;;;;;19.02;5.70;;;18.00;99.90;;;;;;5050920;28;20474;-70
2023/07/28 04:57:46;;;;;;;12.93;4.80;;;17.90;99.90;;;;;;5051770;28;20036;-70
2023/07/28 05:00:13;;;;;;;23.33;5.55;;;18.00;99.90;;;;;;5034173;28;20283;-69
2023/07/28 05:02:38;;;;;;;16.65;4.68;;;18.00;99.90;;;;;;5050922;28;20041;-70
2023/07/28 05:05:04;;;;;;;16.65;4.95;;;18.00;99.90;;;;;;5050592;28;20048;-69
2023/07/28 05:07:30;;;;;;;19.65;5.13;;;17.90;99.90;;;;;;5051471;28;20410;-69
2023/07/28 05:09:56;;;;;;;14.65;5.03;;;18.00;99.90;;;;;;5041809;28;20143;-70
2023/07/28 05:12:22;;;;;;;21.67;4.95;;;18.00;99.90;;;;;;5029046;28;20048;-69
2023/07/28 05:14:47;;;;;;;16.98;4.70;;;18.00;99.90;;;;;;5028379;28;20045;-69
2023/07/28 05:17:13;;;;;;;16.33;4.88;;;18.00;99.90;;;;;;5027057;28;20114;-70
2023/07/28 05:19:39;;;;;;;15.80;4.38;;;18.00;99.90;;;;;;5051118;28;20161;-70
2023/07/28 05:22:06;;;;;;;22.95;4.40;;;18.00;99.90;;;;;;5050770;28;20059;-70
2023/07/28 05:24:35;;;;;;;14.70;5.00;;;18.00;99.90;;;;;;5068656;28;20087;-70
2023/07/28 05:27:01;;;;;;;13.68;4.45;;;18.00;99.90;;;;;;5034952;28;20040;-70
2023/07/28 05:29:27;;;;;;;19.63;4.57;;;18.10;99.90;;;;;;5028583;28;20029;-70
2023/07/28 05:31:52;;;;;;;12.25;4.32;;;18.10;99.90;;;;;;5050790;28;20086;-70
2023/07/28 05:34:18;;;;;;;17.75;4.30;;;18.10;99.90;;;;;;5049305;28;20407;-70
2023/07/28 05:36:44;;;;;;;14.38;4.47;;;18.10;99.90;;;;;;5034147;28;20037;-70
2023/07/28 05:39:10;;;;;;;13.40;4.18;;;18.10;99.90;;;;;;5050270;28;20056;-70
2023/07/28 05:41:39;;;;;;;17.35;4.85;;;18.10;99.90;;;;;;5050757;28;20037;-70
2023/07/28 05:44:10;;;;;;;18.47;4.47;;;18.20;99.90;;;;;;5068220;28;20060;-70
2023/07/28 05:46:36;;;;;;;13.18;4.65;;;18.20;99.90;;;;;;5050394;28;20290;-70
2023/07/28 05:49:02;;;;;;;15.57;4.95;;;18.20;99.90;;;;;;5050630;28;20448;-71
2023/07/28 05:51:28;;;;;;;21.25;5.50;;;18.20;99.90;;;;;;5043661;28;20040;-71
2023/07/28 05:53:54;;;;;;;10.88;4.32;;;18.30;99.90;;;;;;5050595;28;20507;-71
2023/07/28 05:56:20;;;;;;;16.90;5.65;;;18.30;99.90;;;;;;5049505;28;20149;-70
2023/07/28 05:58:47;;;;;;;19.05;5.65;;;18.30;99.90;;;;;;5050577;28;20076;-71
2023/07/28 06:01:13;;;;;;;16.92;5.43;;;18.30;99.90;;;;;;5049395;28;20465;-71
2023/07/28 06:03:39;;;;;;;14.85;5.30;;;18.40;99.90;;;;;;5050262;28;20127;-70
2023/07/28 06:06:05;;;;;;;30.05;6.47;;;18.40;99.90;;;;;;5050258;28;20359;-70
2023/07/28 06:08:30;;;;;;;15.68;5.30;;;18.30;99.90;;;;;;5049594;28;20083;-70
2023/07/28 06:10:56;;;;;;;15.55;5.38;;;18.30;99.90;;;;;;5035781;28;20049;-70
2023/07/28 06:13:22;;;;;;;13.43;4.65;;;18.30;99.90;;;;;;5045467;28;20179;-71
2023/07/28 06:15:48;;;;;;;11.38;4.20;;;18.30;99.90;;;;;;5028991;28;20131;-70
2023/07/28 06:18:13;;;;;;;7.72;4.13;;;18.20;99.90;;;;;;5049471;28;20498;-71
2023/07/28 06:20:45;;;;;;;5.70;4.25;;;18.30;99.90;;;;;;5049427;28;20040;-71
2023/07/28 06:23:12;;;;;;;9.63;4.38;;;18.20;99.90;;;;;;5045470;28;20053;-70
2023/07/28 06:25:43;;;;;;;6.60;3.42;;;18.30;99.90;;;;;;5045314;28;20050;-70
2023/07/28 06:28:09;;;;;;;11.18;4.78;;;18.20;99.90;;;;;;5049819;28;20049;-70
2023/07/28 06:30:35;;;;;;;5.97;4.57;;;18.20;99.90;;;;;;5043226;28;20049;-70
2023/07/28 06:33:03;;;;;;;11.95;4.72;;;18.30;99.90;;;;;;5032641;28;20504;-70
2023/07/28 06:35:28;;;;;;;12.10;4.47;;;18.30;99.90;;;;;;5049329;28;20049;-70
2023/07/28 06:37:54;;;;;;;6.97;4.68;;;18.20;99.90;;;;;;5050204;28;20044;-70
2023/07/28 06:40:20;;;;;;;7.38;4.43;;;18.20;99.90;;;;;;5045283;28;20410;-70
2023/07/28 06:42:46;;;;;;;10.30;4.95;;;18.20;99.90;;;;;;5013027;28;20043;-70
2023/07/28 06:45:12;;;;;;;6.57;4.78;;;18.30;99.90;;;;;;5014380;28;20049;-70
2023/07/28 06:47:38;;;;;;;7.65;4.30;;;18.40;99.90;;;;;;5015110;28;20127;-70
2023/07/28 06:50:05;;;;;;;7.97;3.85;;;18.50;99.90;;;;;;5035636;28;20088;-70
2023/07/28 06:52:31;;;;;;;10.57;4.60;;;18.50;99.90;;;;;;5014529;28;20088;-70
2023/07/28 06:54:56;;;;;;;7.97;4.03;;;18.60;99.90;;;;;;5023159;28;20053;-69
2023/07/28 06:57:22;;;;;;;9.23;4.30;;;18.50;99.90;;;;;;5028962;28;20187;-70
2023/07/28 06:59:49;;;;;;;6.25;3.85;;;18.50;99.90;;;;;;5026980;28;20081;-70
2023/07/28 07:02:15;;;;;;;6.78;4.25;;;18.70;99.90;;;;;;5028202;28;20068;-70
2023/07/28 07:04:41;;;;;;;7.95;4.72;;;18.70;99.90;;;;;;5044961;28;20044;-69
2023/07/28 07:07:07;;;;;;;8.50;4.03;;;18.80;99.90;;;;;;5044718;28;20072;-69
2023/07/28 07:09:33;;;;;;;6.43;3.90;;;18.80;99.90;;;;;;5038724;28;20138;-69
2023/07/28 07:11:59;;;;;;;6.38;3.70;;;18.80;99.90;;;;;;5038259;28;20114;-70
2023/07/28 07:14:26;;;;;;;9.05;4.22;;;18.70;99.90;;;;;;5044629;28;20709;-69
2023/07/28 07:16:51;;;;;;;4.80;3.83;;;18.70;99.90;;;;;;5028853;28;20056;-69
2023/07/28 07:19:17;;;;;;;5.38;3.55;;;18.60;99.90;;;;;;5028912;28;20049;-69
2023/07/28 07:21:44;;;;;;;7.38;3.80;;;18.70;99.90;;;;;;5028685;28;20056;-70
2023/07/28 07:24:13;;;;;;;4.75;3.90;;;18.70;99.90;;;;;;5045263;28;20171;-69
2023/07/28 07:26:39;;;;;;;5.70;4.03;;;18.70;99.90;;;;;;5044163;28;20045;-69
2023/07/28 07:29:06;;;;;;;3.92;3.60;;;18.60;99.90;;;;;;5022214;28;20414;-69
2023/07/28 07:31:32;;;;;;;4.63;4.00;;;18.70;99.90;;;;;;5043169;28;20053;-70
2023/07/28 07:33:58;;;;;;;6.40;4.88;;;18.80;99.90;;;;;;5037798;28;20513;-69
2023/07/28 07:36:24;;;;;;;5.28;3.83;;;18.80;99.90;;;;;;5027786;28;20068;-70
2023/07/28 07:38:49;;;;;;;4.35;3.50;;;18.90;99.90;;;;;;5041844;28;20385;-70
2023/07/28 07:41:19;;;;;;;4.75;3.55;;;19.00;99.90;;;;;;5019778;28;20176;-70
2023/07/28 07:43:45;;;;;;;;;;;19.10;99.90;;;;;;5024539;28;20495;-69
2023/07/28 07:46:11;;;;;;;5.05;4.40;;;19.20;99.90;;;;;;5017925;28;19931;-69
2023/07/28 07:48:36;;;;;;;5.63;4.18;;;19.20;99.90;;;;;;5006291;28;20045;-70
2023/07/28 07:51:03;;;;;;;4.50;4.00;;;19.30;99.90;;;;;;5010250;28;20053;-70
2023/07/28 07:53:29;;;;;;;6.05;4.63;;;19.40;99.90;;;;;;5019370;28;20557;-69
2023/07/28 07:55:55;;;;;;;5.80;4.40;;;19.60;99.90;;;;;;5041265;28;20055;-69
2023/07/28 07:58:20;;;;;;;4.00;3.60;;;19.50;99.90;;;;;;5021847;28;20055;-70
2023/07/28 08:00:46;;;;;;;5.47;3.80;;;19.50;99.90;;;;;;5017033;28;20087;-69
2023/07/28 08:03:12;;;;;;;4.00;3.70;;;19.50;99.90;;;;;;4988921;28;20049;-70
2023/07/28 08:05:38;;;;;;;10.32;3.90;;;19.50;99.90;;;;;;5022280;28;20048;-69
2023/07/28 08:08:06;;;;;;;3.75;3.45;;;19.70;99.90;;;;;;5003952;28;20164;-70
2023/07/28 08:10:33;;;;;;;3.57;3.30;;;19.90;99.90;;;;;;4995456;28;20060;-69
2023/07/28 08:12:59;;;;;;;6.75;3.92;;;19.80;99.90;;;;;;5011993;28;20125;-69
2023/07/28 08:15:25;;;;;;;3.58;3.28;;;19.70;99.90;;;;;;5025033;28;20136;-69
2023/07/28 08:17:52;;;;;;;5.07;3.60;;;19.60;99.90;;;;;;5043366;28;20049;-69
2023/07/28 08:20:18;;;;;;;3.15;2.92;;;19.60;99.90;;;;;;5020133;28;20053;-69
2023/07/28 08:22:44;;;;;;;3.22;2.97;;;19.70;99.90;;;;;;5007953;28;20046;-69
2023/07/28 08:25:10;;;;;;;3.92;2.90;;;19.60;99.90;;;;;;5013675;28;20076;-69
2023/07/28 08:27:35;;;;;;;4.43;2.90;;;19.70;99.90;;;;;;4991971;28;20053;-69
2023/07/28 08:30:02;;;;;;;6.55;3.40;;;19.80;99.90;;;;;;5013183;28;20050;-68
2023/07/28 08:32:27;;;;;;;3.05;2.78;;;19.90;99.90;;;;;;4993860;28;20503;-69
2023/07/28 08:34:54;;;;;;;5.60;2.90;;;20.00;99.90;;;;;;5023442;28;20050;-69
2023/07/28 08:37:20;;;;;;;3.05;2.85;;;20.00;99.90;;;;;;5008006;28;20051;-68
2023/07/28 08:39:45;;;;;;;4.32;2.50;;;20.10;99.90;;;;;;5035185;28;20049;-69
2023/07/28 08:42:11;;;;;;;2.97;2.70;;;20.10;99.90;;;;;;5004403;28;20046;-69
2023/07/28 08:44:37;;;;;;;3.20;2.42;;;20.20;99.90;;;;;;5012468;28;20056;-69
2023/07/28 08:47:04;;;;;;;3.58;2.92;;;20.10;99.90;;;;;;4992542;28;20037;-69
2023/07/28 08:49:36;;;;;;;3.05;2.85;;;20.10;99.90;;;;;;5020590;28;20393;-69
2023/07/28 08:52:03;;;;;;;4.90;2.97;;;20.10;99.90;;;;;;5018834;28;20056;-68
2023/07/28 08:54:29;;;;;;;3.40;3.00;;;20.10;99.90;;;;;;5027961;28;20162;-68
2023/07/28 08:56:57;;;;;;;3.85;3.50;;;20.20;99.90;;;;;;5027639;28;20052;-68
2023/07/28 08:59:27;;;;;;;3.83;3.47;;;20.10;99.90;;;;;;5027266;28;20094;-68
2023/07/28 09:01:55;;;;;;;3.22;2.92;;;20.10;99.90;;;;;;5024185;28;20491;-68
2023/07/28 09:04:22;;;;;;;2.63;2.42;;;20.00;99.90;;;;;;5045794;28;20056;-68
2023/07/28 09:06:48;;;;;;;3.50;3.20;;;20.30;99.90;;;;;;5022927;28;20495;-68
2023/07/28 09:09:20;;;;;;;2.88;2.67;;;20.30;99.90;;;;;;5042333;28;20040;-69
2023/07/28 09:11:48;;;;;;;6.53;4.70;;;20.30;99.90;;;;;;5022443;28;20085;-68
2023/07/28 09:14:16;;;;;;;7.50;3.00;;;20.30;99.90;;;;;;5028280;28;20045;-68
2023/07/28 09:16:43;;;;;;;3.65;3.30;;;20.20;99.90;;;;;;5048903;28;20037;-69
2023/07/28 09:19:09;;;;;;;5.05;2.70;;;20.40;99.90;;;;;;5030860;28;20399;-68
2023/07/28 09:21:38;;;;;;;2.90;2.38;;;20.70;99.90;;;;;;5030478;28;20041;-69
2023/07/28 09:24:06;;;;;;;3.35;2.38;;;21.00;99.90;;;;;;5049290;28;20154;-68
2023/07/28 09:26:38;;;;;;;4.13;2.50;;;21.10;99.90;;;;;;4997674;28;20045;-68
2023/07/28 09:29:21;;;;;;;4.18;1.83;;;21.00;99.90;;;;;;5020270;28;20053;-68
2023/07/28 09:31:48;;;;;;;4.03;2.28;;;20.90;99.90;;;;;;5022422;28;20080;-68
2023/07/28 09:34:25;;;;;;;4.07;2.13;;;20.80;99.90;;;;;;5005450;28;20053;-68
2023/07/28 09:36:54;;;;;;;2.03;1.92;;;20.70;99.90;;;;;;5023676;28;20080;-68
2023/07/28 09:39:20;;;;;;;5.00;2.60;;;20.60;99.90;;;;;;5016221;28;20058;-68
2023/07/28 09:41:47;;;;;;;4.40;2.53;;;20.50;99.90;;;;;;5028547;28;20088;-67
2023/07/28 09:44:13;;;;;;;6.43;2.65;;;20.50;99.90;;;;;;5039159;28;20068;-68
2023/07/28 09:46:56;;;;;;;3.10;2.90;;;20.50;99.90;;;;;;5032125;28;20040;-67
2023/07/28 09:49:35;;;;;;;2.83;2.63;;;20.40;99.90;;;;;;5046640;28;20541;-67
2023/07/28 09:52:05;;;;;;;2.58;2.47;;;20.30;99.90;;;;;;5046081;28;20390;-67
2023/07/28 09:54:34;;;;;;;4.63;2.25;;;20.30;99.90;;;;;;5048144;28;20499;-67
2023/07/28 09:57:01;;;;;;;3.33;3.05;;;20.30;99.90;;;;;;5047858;28;20045;-67
2023/07/28 09:59:35;;;;;;;3.53;3.22;;;20.30;99.90;;;;;;5048182;28;20510;-67
2023/07/28 10:02:02;;;;;;;2.70;2.50;;;20.30;99.90;;;;;;5047093;28;20052;-67
2023/07/28 10:04:29;;;;;;;3.08;2.72;;;20.30;99.90;;;;;;5044488;28;20142;-67
2023/07/28 10:06:56;;;;;;;2.83;2.63;;;20.30;99.90;;;;;;5043923;28;20106;-67
2023/07/28 10:09:30;;;;;;;2.97;2.42;;;20.40;99.90;;;;;;5042094;28;20041;-67
2023/07/28 10:11:56;;;;;;;2.60;2.40;;;20.40;99.90;;;;;;5038507;28;20057;-67
2023/07/28 10:14:30;;;;;;;2.53;2.30;;;20.50;99.90;;;;;;5029417;28;20053;-67
2023/07/28 10:16:57;;;;;;;2.42;2.33;;;20.60;99.90;;;;;;5046193;28;20052;-67
2023/07/28 10:19:26;;;;;;;2.20;2.00;;;20.60;99.90;;;;;;5034889;28;20076;-67
2023/07/28 10:22:10;;;;;;;2.85;2.28;;;20.60;99.90;;;;;;5038122;28;20052;-67
2023/07/28 10:24:56;;;;;;;2.60;2.33;;;20.70;99.90;;;;;;5035198;28;20179;-67
2023/07/28 10:27:50;;;;;;;2.42;2.22;;;20.70;99.90;;;;;;5036712;28;20110;-67
2023/07/28 10:30:16;;;;;;;2.50;2.10;;;20.80;99.90;;;;;;5024731;28;20452;-66
2023/07/28 10:32:50;;;;;;;2.28;2.08;;;20.90;99.90;;;;;;5044765;28;20122;-68
2023/07/28 10:35:21;;;;;;;2.30;2.10;;;21.00;99.90;;;;;;5044653;28;20499;-67
2023/07/28 10:37:48;;;;;;;2.08;1.98;;;21.20;99.90;;;;;;5046536;28;20060;-67
2023/07/28 10:40:36;;;;;;;2.15;1.90;;;21.30;99.90;;;;;;5045759;28;20049;-67
2023/07/28 10:43:04;;;;;;;2.00;1.90;;;21.60;99.90;;;;;;5028714;28;20054;-67
2023/07/28 10:45:32;;;;;;;1.48;1.38;;;21.80;99.90;;;;;;5021314;28;20045;-66
2023/07/28 10:48:03;;;;;;;4.47;1.52;;;21.90;99.90;;;;;;5043380;28;20064;-66
2023/07/28 10:50:30;;;;;;;1.35;1.25;;;22.10;99.90;;;;;;5029198;28;20046;-67
2023/07/28 10:52:57;;;;;;;1.23;1.13;;;22.30;99.90;;;;;;5032924;28;20045;-66
2023/07/28 10:55:25;;;;;;;1.52;1.27;;;22.40;99.90;;;;;;5018825;28;20557;-67
2023/07/28 10:57:52;;;;;;;1.75;1.27;;;22.50;99.90;;;;;;5025056;28;20542;-66
2023/07/28 11:00:19;;;;;;;1.58;1.40;;;22.50;99.90;;;;;;5025463;28;20041;-66
2023/07/28 11:02:47;;;;;;;0.90;0.90;;;22.60;99.90;;;;;;5010869;28;20536;-66
2023/07/28 11:05:30;;;;;;;1.40;1.30;;;22.50;99.90;;;;;;5040200;28;20136;-67
2023/07/28 11:08:01;;;;;;;2.25;1.20;;;22.50;99.90;;;;;;5021773;28;20037;-67
2023/07/28 11:10:31;;;;;;;2.15;1.50;;;22.60;99.90;;;;;;5042561;28;20106;-66
2023/07/28 11:13:00;;;;;;;1.38;1.20;;;22.70;99.90;;;;;;5020887;28;20440;-66
2023/07/28 11:15:26;;;;;;;1.05;1.02;;;22.80;99.90;;;;;;5029636;28;20041;-66
2023/07/28 11:17:54;;;;;;;3.30;1.10;;;22.70;99.90;;;;;;5013658;28;20503;-65
2023/07/28 11:20:24;;;;;;;1.15;1.05;;;22.60;99.90;;;;;;5019455;28;20052;-66
2023/07/28 11:22:57;;;;;;;3.13;1.02;;;22.60;99.90;;;;;;5031262;28;20033;-66
2023/07/28 11:25:25;;;;;;;3.22;1.38;;;22.60;99.90;;;;;;5034694;28;20053;-66
2023/07/28 11:27:51;;;;;;;1.13;1.13;;;22.50;99.90;;;;;;5024708;28;20117;-66
2023/07/28 11:30:18;;;;;;;2.90;1.45;;;22.30;99.90;;;;;;5002221;28;20041;-66
2023/07/28 11:32:52;;;;;;;1.40;1.30;;;22.20;99.90;;;;;;5011100;28;20117;-66
2023/07/28 11:35:22;;;;;;;2.05;1.25;;;22.10;99.90;;;;;;5026614;28;20113;-66
2023/07/28 11:37:50;;;;;;;0.80;0.80;;;22.00;99.90;;;;;;5010608;28;20041;-66
2023/07/28 11:40:19;;;;;;;1.05;0.95;;;21.90;99.90;;;;;;5036934;28;20064;-66
2023/07/28 11:42:48;;;;;;;2.67;1.10;;;22.00;99.90;;;;;;5042026;28;20042;-66
2023/07/28 11:45:16;;;;;;;1.42;0.98;;;22.20;99.90;;;;;;5042772;28;20059;-66
2023/07/28 11:48:03;;;;;;;1.45;1.00;;;22.40;99.90;;;;;;5041449;28;20045;-66
2023/07/28 11:50:33;;;;;;;3.33;1.05;;;22.50;99.90;;;;;;5046094;28;20047;-66
2023/07/28 11:52:59;;;;;;;3.63;1.27;;;22.40;99.90;;;;;;5049033;28;20049;-66
2023/07/28 11:55:26;;;;;;;1.13;1.05;;;22.30;99.90;;;;;;5032414;28;20045;-66
2023/07/28 11:57:53;;;;;;;1.63;0.98;;;22.00;99.90;;;;;;5044422;28;20049;-66
2023/07/28 12:00:26;;;;;;;1.17;1.17;;;22.00;99.90;;;;;;5041246;28;20103;-66
2023/07/28 12:03:04;;;;;;;1.35;1.25;;;22.00;99.90;;;;;;5035073;28;20496;-66
2023/07/28 12:05:30;;;;;;;1.80;1.50;;;22.10;99.90;;;;;;5043031;28;20041;-66
2023/07/28 12:07:56;;;;;;;2.15;1.52;;;22.20;99.90;;;;;;5029448;28;20041;-66
2023/07/28 12:10:24;;;;;;;2.25;1.67;;;22.30;99.90;;;;;;5030792;28;20116;-66
2023/07/28 12:12:50;;;;;;;1.48;1.30;;;22.60;99.90;;;;;;5040981;28;20041;-66
2023/07/28 12:15:27;;;;;;;2.58;1.80;;;22.80;99.90;;;;;;5016973;28;20054;-66
2023/07/28 12:18:03;;;;;;;1.50;1.23;;;23.00;99.90;;;;;;5045208;28;20051;-66
2023/07/28 12:20:37;;;;;;;4.18;1.48;;;23.00;99.90;;;;;;5046168;28;20045;-66
2023/07/28 12:23:03;;;;;;;1.50;1.40;;;22.90;99.90;;;;;;5045065;28;20503;-66
2023/07/28 12:25:29;;;;;;;3.40;1.15;;;22.90;99.90;;;;;;5027997;28;20084;-66
2023/07/28 12:27:55;;;;;;;1.00;1.00;;;23.00;99.90;;;;;;5046133;28;20077;-66
2023/07/28 12:30:21;;;;;;;1.58;0.93;;;23.20;99.90;;;;;;5045944;28;20044;-66
2023/07/28 12:32:47;;;;;;;1.40;0.93;;;23.40;99.90;;;;;;5045809;28;20466;-66
2023/07/28 12:35:14;;;;;;;0.80;0.80;;;23.50;99.90;;;;;;5045629;28;20338;-66
2023/07/28 12:37:39;;;;;;;0.85;0.68;;;23.60;99.90;;;;;;5045321;28;20120;-67
2023/07/28 12:40:06;;;;;;;0.70;0.70;;;23.50;99.90;;;;;;5010208;28;20140;-66
2023/07/28 12:42:32;;;;;;;1.08;0.90;;;23.40;99.90;;;;;;5060356;28;20109;-66
2023/07/28 12:44:58;;;;;;;2.60;1.33;;;23.40;99.90;;;;;;5034711;28;20044;-66